• Join FlightAware (Why Join?)
  • Login
  • US Flag 
07:43AM EST


 

Airport Tracker/Info


-or-


 

Live Flight TrackerFlight Track Log ✈ SKW5619 ✈ 2013年 06月 02日 ✈ KDEN - KHLN

Flight Track Log - Related Links

Times and Time Zones

All times are in EDT time to prevent confusion due to time zone crossing. See the SKW5619 flight status page for this flight to view local times or setup timezone preferences in your user account.

Time Position Orientation Groundspeed Altitude Reporting Facility
EDT Latitude Longitude Course Direction KTS MPH feet Rate Location/Type
09:29PM 40.3894 -105.1745 324° Northwest  Level Estimated
09:30PM 40.4771 -105.2589 324° Northwest  Level Estimated
09:31PM 40.5648 -105.3434 324° Northwest  Level Estimated
09:32PM 40.6524 -105.4281 324° Northwest  Level Estimated
09:33PM 40.7399 -105.5131 324° Northwest  Level Estimated
09:34PM 40.8274 -105.5984 324° Northwest  Level Estimated
09:35PM 40.9149 -105.6838 324° Northwest  Level Estimated
09:36PM 41.0022 -105.7694 324° Northwest  Level Estimated
09:37PM 41.0895 -105.8553 323° Northwest  Level Estimated
09:38PM 41.1768 -105.9415 323° Northwest  Level Estimated
09:39PM 41.2639 -106.0278 323° Northwest  Level Estimated
09:40PM 41.3510 -106.1144 323° Northwest  Level Estimated
09:41PM 41.4381 -106.2012 323° Northwest  Level Estimated
09:42PM 41.5251 -106.2882 323° Northwest  Level Estimated
09:43PM 41.6120 -106.3755 323° Northwest  Level Estimated
09:44PM 41.6988 -106.4630 323° Northwest  Level Estimated
09:45PM 41.7856 -106.5508 323° Northwest  Level Estimated
09:46PM 41.8723 -106.6388 323° Northwest  Level Estimated
09:47PM 41.9589 -106.7270 323° Northwest  Level Estimated
09:48PM 42.0455 -106.8155 323° Northwest  Level Estimated
09:49PM 42.1320 -106.9042 323° Northwest  Level Estimated
09:50PM 42.2185 -106.9931 323° Northwest  Level Estimated
09:51PM 42.3048 -107.0823 323° Northwest  Level Estimated
09:52PM 42.3911 -107.1718 323° Northwest  Level Estimated
09:53PM 42.4774 -107.2615 323° Northwest  Level Estimated
09:54PM 42.5635 -107.3514 322° Northwest  Level Estimated
09:55PM 42.6496 -107.4416 322° Northwest  Level Estimated
09:56PM 42.7356 -107.5320 322° Northwest  Level Estimated
09:57PM 42.8216 -107.6227 322° Northwest  Level Estimated
09:58PM 42.9075 -107.7136 322° Northwest  Level Estimated
09:59PM 42.9933 -107.8048 322° Northwest  Level Estimated
10:00PM 43.0790 -107.8962 322° Northwest  Level Estimated
10:01PM 43.1647 -107.9879 322° Northwest  Level Estimated
10:02PM 43.2503 -108.0799 322° Northwest  Level Estimated
10:03PM 43.3358 -108.1721 322° Northwest  Level Estimated
10:04PM 43.4212 -108.2646 322° Northwest  Level Estimated
10:05PM 43.5066 -108.3573 322° Northwest  Level Estimated
10:06PM 43.5919 -108.4503 322° Northwest  Level Estimated
10:07PM 43.6771 -108.5436 322° Northwest  Level Estimated
10:08PM 43.7622 -108.6371 322° Northwest  Level Estimated
10:09PM 43.8473 -108.7309 322° Northwest  Level Estimated
10:10PM 43.9322 -108.8250 321° Northwest  Level Estimated
10:11PM 44.0171 -108.9193 321° Northwest  Level Estimated
10:12PM 44.1020 -109.0139 321° Northwest  Level Estimated
10:13PM 44.1867 -109.1088 321° Northwest  Level Estimated
10:14PM 44.2714 -109.2039 321° Northwest  Level Estimated
10:15PM 44.3560 -109.2993 321° Northwest  Level Estimated
10:16PM 44.4405 -109.3951 321° Northwest  Level Estimated
10:17PM 44.5249 -109.4910 321° Northwest  Level Estimated
10:18PM 44.6093 -109.5873 321° Northwest  Level Estimated
10:19PM 44.6935 -109.6838 321° Northwest  Level Estimated
10:20PM 44.7777 -109.7806 321° Northwest  Level Estimated
10:21PM 44.8618 -109.8777 321° Northwest  Level Estimated
10:22PM 44.9459 -109.9751 321° Northwest  Level Estimated
10:23PM 45.0298 -110.0728 321° Northwest  Level Estimated
10:24PM 45.1137 -110.1707 321° Northwest  Level Estimated
10:25PM 45.1974 -110.2690 320° Northwest  Level Estimated
10:26PM 45.2811 -110.3675 320° Northwest  Level Estimated
10:27PM 45.3647 -110.4663 320° Northwest  Level Estimated
10:28PM 45.4482 -110.5654 320° Northwest  Level Estimated
10:29PM 45.5317 -110.6648 320° Northwest  Level Estimated
10:30PM 45.6150 -110.7645 320° Northwest  Level Estimated
10:31PM 45.6983 -110.8645 320° Northwest  Level Estimated
10:32PM 45.7814 -110.9648 320° Northwest  Level Estimated
10:33PM 45.8645 -111.0654 320° Northwest  Level Estimated
10:34PM 45.9475 -111.1663 320° Northwest  Level Estimated
10:35PM 46.0304 -111.2675 320° Northwest  Level Estimated
10:36PM 46.1132 -111.3690 320° Northwest  Level Estimated
10:37PM 46.1959 -111.4708 320° Northwest  Level Estimated
10:38PM 46.2786 -111.5730 320° Northwest  Level Estimated
10:39PM 46.3611 -111.6754 319° Northwest  Level Estimated
10:40PM 46.4436 -111.7781 319° Northwest  Level Estimated
10:41PM 46.5259 -111.8811 319° Northwest  Level Estimated
10:42PM 46.6068 -111.9827 319° Northwest  Level Estimated
10:43PM 46.6068 -111.9827 180° South  Level Estimated
10:44PM 46.6068 -111.9827 180° South  Level Estimated
10:45PM 46.6068 -111.9827 180° South  Level Estimated
10:46PM 46.6068 -111.9827 180° South  Level Estimated
10:47PM 46.6068 -111.9827 180° South  Level Estimated
10:48PM 46.6068 -111.9827 180° South  Level Estimated
10:49PM 46.6068 -111.9827 180° South  Level Estimated
10:50PM 46.6068 -111.9827 180° South  Level Estimated
10:51PM 46.6068 -111.9827 180° South  Level Estimated
10:52PM 46.6068 -111.9827 180° South  Level Estimated
10:53PM 46.6068 -111.9827 180° South  Level Estimated
10:54PM 46.6068 -111.9827 180° South  Level Estimated
10:55PM 46.6068 -111.9827 180° South  Level Estimated